sensor_id;sensor_type;location;lat;lon;timestamp;pressure;altitude;pressure_sealevel;temperature;humidity
40384;BME280;26097;42.366;23.818;2023-01-25T00:03:00;95151.19;;;0.07;100.00
40384;BME280;26097;42.366;23.818;2023-01-25T00:06:00;95152.13;;;0.03;100.00
40384;BME280;26097;42.366;23.818;2023-01-25T00:09:01;95153.88;;;-0.01;100.00
40384;BME280;26097;42.366;23.818;2023-01-25T00:12:02;95160.72;;;-0.01;100.00
40384;BME280;26097;42.366;23.818;2023-01-25T00:15:03;95165.81;;;0.02;100.00
40384;BME280;26097;42.366;23.818;2023-01-25T00:18:03;95156.38;;;0.04;100.00
40384;BME280;26097;42.366;23.818;2023-01-25T00:21:24;95154.69;;;0.02;100.00
40384;BME280;26097;42.366;23.818;2023-01-25T00:24:24;95158.94;;;0.04;100.00
40384;BME280;26097;42.366;23.818;2023-01-25T00:27:25;95157.38;;;-0.06;100.00
40384;BME280;26097;42.366;23.818;2023-01-25T00:30:25;95159.94;;;-0.06;100.00
40384;BME280;26097;42.366;23.818;2023-01-25T00:33:39;95162.56;;;-0.08;100.00
40384;BME280;26097;42.366;23.818;2023-01-25T00:36:43;95150.50;;;-0.03;100.00
40384;BME280;26097;42.366;23.818;2023-01-25T00:39:44;95161.69;;;-0.08;100.00
40384;BME280;26097;42.366;23.818;2023-01-25T00:42:44;95153.13;;;-0.07;100.00
40384;BME280;26097;42.366;23.818;2023-01-25T00:45:44;95158.31;;;-0.09;100.00
40384;BME280;26097;42.366;23.818;2023-01-25T00:48:45;95148.88;;;-0.08;100.00
40384;BME280;26097;42.366;23.818;2023-01-25T00:51:45;95144.56;;;-0.06;100.00
40384;BME280;26097;42.366;23.818;2023-01-25T00:54:46;95142.88;;;-0.06;100.00
40384;BME280;26097;42.366;23.818;2023-01-25T00:57:46;95133.38;;;-0.01;100.00
40384;BME280;26097;42.366;23.818;2023-01-25T01:00:46;95137.75;;;-0.06;100.00
40384;BME280;26097;42.366;23.818;2023-01-25T01:03:47;95132.72;;;-0.12;100.00
40384;BME280;26097;42.366;23.818;2023-01-25T01:06:47;95129.25;;;-0.09;100.00
40384;BME280;26097;42.366;23.818;2023-01-25T01:09:48;95133.50;;;-0.08;100.00
40384;BME280;26097;42.366;23.818;2023-01-25T01:12:48;95137.88;;;-0.15;100.00
40384;BME280;26097;42.366;23.818;2023-01-25T01:15:50;95143.09;;;-0.20;100.00
40384;BME280;26097;42.366;23.818;2023-01-25T01:18:50;95146.44;;;-0.15;100.00
40384;BME280;26097;42.366;23.818;2023-01-25T01:21:50;95137.00;;;-0.12;100.00
40384;BME280;26097;42.366;23.818;2023-01-25T01:24:51;95130.16;;;-0.12;100.00
40384;BME280;26097;42.366;23.818;2023-01-25T01:27:51;95120.75;;;-0.11;100.00
40384;BME280;26097;42.366;23.818;2023-01-25T01:30:52;95130.13;;;-0.10;100.00
40384;BME280;26097;42.366;23.818;2023-01-25T01:33:54;95122.38;;;-0.07;100.00
40384;BME280;26097;42.366;23.818;2023-01-25T01:36:55;95127.50;;;-0.07;100.00
40384;BME280;26097;42.366;23.818;2023-01-25T01:39:55;95126.56;;;-0.03;100.00
40384;BME280;26097;42.366;23.818;2023-01-25T01:42:59;95130.00;;;-0.04;100.00
40384;BME280;26097;42.366;23.818;2023-01-25T01:46:08;95131.66;;;0.00;100.00
40384;BME280;26097;42.366;23.818;2023-01-25T01:49:23;95133.44;;;-0.05;100.00
40384;BME280;26097;42.366;23.818;2023-01-25T01:52:30;95124.06;;;-0.06;100.00
40384;BME280;26097;42.366;23.818;2023-01-25T01:55:32;95119.81;;;-0.06;100.00
40384;BME280;26097;42.366;23.818;2023-01-25T01:58:33;95114.69;;;-0.07;100.00
40384;BME280;26097;42.366;23.818;2023-01-25T02:01:33;95121.75;;;-0.19;100.00
40384;BME280;26097;42.366;23.818;2023-01-25T02:04:34;95117.44;;;-0.18;100.00
40384;BME280;26097;42.366;23.818;2023-01-25T02:07:37;95122.59;;;-0.20;100.00
40384;BME280;26097;42.366;23.818;2023-01-25T02:10:38;95125.22;;;-0.23;100.00
40384;BME280;26097;42.366;23.818;2023-01-25T02:13:40;95121.06;;;-0.30;100.00
40384;BME280;26097;42.366;23.818;2023-01-25T02:16:40;95116.88;;;-0.34;100.00
40384;BME280;26097;42.366;23.818;2023-01-25T02:19:43;95115.94;;;-0.30;100.00
40384;BME280;26097;42.366;23.818;2023-01-25T02:26:10;95117.88;;;-0.43;100.00
40384;BME280;26097;42.366;23.818;2023-01-25T02:29:11;95117.09;;;-0.48;100.00
40384;BME280;26097;42.366;23.818;2023-01-25T02:32:12;95118.78;;;-0.47;100.00
40384;BME280;26097;42.366;23.818;2023-01-25T02:35:21;95119.69;;;-0.51;100.00
40384;BME280;26097;42.366;23.818;2023-01-25T02:38:22;95111.41;;;-0.66;100.00
40384;BME280;26097;42.366;23.818;2023-01-25T02:41:36;95121.72;;;-0.70;100.00
40384;BME280;26097;42.366;23.818;2023-01-25T02:44:37;95111.47;;;-0.70;100.00
40384;BME280;26097;42.366;23.818;2023-01-25T02:47:38;95117.34;;;-0.65;100.00
40384;BME280;26097;42.366;23.818;2023-01-25T02:50:38;95120.06;;;-0.75;100.00
40384;BME280;26097;42.366;23.818;2023-01-25T02:53:39;95114.13;;;-0.77;100.00
40384;BME280;26097;42.366;23.818;2023-01-25T02:56:40;95117.63;;;-0.82;100.00
40384;BME280;26097;42.366;23.818;2023-01-25T02:59:40;95116.72;;;-0.80;100.00
40384;BME280;26097;42.366;23.818;2023-01-25T03:02:40;95121.06;;;-0.85;100.00
40384;BME280;26097;42.366;23.818;2023-01-25T03:05:41;95119.47;;;-0.92;100.00
40384;BME280;26097;42.366;23.818;2023-01-25T03:08:42;95123.72;;;-0.91;100.00
40384;BME280;26097;42.366;23.818;2023-01-25T03:11:43;95124.66;;;-0.98;100.00
40384;BME280;26097;42.366;23.818;2023-01-25T03:14:43;95123.69;;;-0.90;100.00
40384;BME280;26097;42.366;23.818;2023-01-25T03:17:43;95124.63;;;-0.95;100.00
40384;BME280;26097;42.366;23.818;2023-01-25T03:20:44;95119.47;;;-0.92;100.00
40384;BME280;26097;42.366;23.818;2023-01-25T03:23:45;95123.81;;;-0.97;100.00
40384;BME280;26097;42.366;23.818;2023-01-25T03:26:46;95128.06;;;-0.96;100.00
40384;BME280;26097;42.366;23.818;2023-01-25T03:30:06;95129.03;;;-1.07;100.00
40384;BME280;26097;42.366;23.818;2023-01-25T03:33:06;95121.50;;;-1.16;100.00
40384;BME280;26097;42.366;23.818;2023-01-25T03:36:07;95114.56;;;-1.09;100.00
40384;BME280;26097;42.366;23.818;2023-01-25T03:39:08;95117.13;;;-1.06;100.00
40384;BME280;26097;42.366;23.818;2023-01-25T03:42:08;95115.28;;;-0.99;100.00
40384;BME280;26097;42.366;23.818;2023-01-25T03:45:09;95120.41;;;-0.99;100.00
40384;BME280;26097;42.366;23.818;2023-01-25T03:48:09;95124.59;;;-0.94;100.00
40384;BME280;26097;42.366;23.818;2023-01-25T03:51:10;95116.06;;;-0.93;100.00
40384;BME280;26097;42.366;23.818;2023-01-25T03:54:10;95116.00;;;-0.88;100.00
40384;BME280;26097;42.366;23.818;2023-01-25T03:57:11;95122.94;;;-0.96;100.00
40384;BME280;26097;42.366;23.818;2023-01-25T04:00:12;95122.94;;;-0.96;100.00
40384;BME280;26097;42.366;23.818;2023-01-25T04:03:12;95126.28;;;-0.91;100.00
40384;BME280;26097;42.366;23.818;2023-01-25T04:06:13;95122.09;;;-0.95;100.00
40384;BME280;26097;42.366;23.818;2023-01-25T04:09:13;95118.66;;;-0.96;100.00
40384;BME280;26097;42.366;23.818;2023-01-25T04:12:13;95116.97;;;-0.95;100.00
40384;BME280;26097;42.366;23.818;2023-01-25T04:15:14;95120.38;;;-0.96;100.00
40384;BME280;26097;42.366;23.818;2023-01-25T04:18:15;95119.59;;;-1.02;100.00
40384;BME280;26097;42.366;23.818;2023-01-25T04:21:15;95126.50;;;-1.07;100.00
40384;BME280;26097;42.366;23.818;2023-01-25T04:24:15;95118.81;;;-1.05;100.00
40384;BME280;26097;42.366;23.818;2023-01-25T04:27:16;95117.94;;;-1.06;100.00
40384;BME280;26097;42.366;23.818;2023-01-25T04:30:16;95117.91;;;-1.03;100.00
40384;BME280;26097;42.366;23.818;2023-01-25T04:33:17;95128.19;;;-1.06;100.00
40384;BME280;26097;42.366;23.818;2023-01-25T04:36:17;95130.78;;;-1.09;100.00
40384;BME280;26097;42.366;23.818;2023-01-25T04:39:18;95121.41;;;-1.10;100.00
40384;BME280;26097;42.366;23.818;2023-01-25T04:42:18;95120.56;;;-1.09;100.00
40384;BME280;26097;42.366;23.818;2023-01-25T04:45:19;95128.31;;;-1.15;100.00
40384;BME280;26097;42.366;23.818;2023-01-25T04:48:19;95129.97;;;-1.12;100.00
40384;BME280;26097;42.366;23.818;2023-01-25T04:51:19;95128.28;;;-1.13;100.00
40384;BME280;26097;42.366;23.818;2023-01-25T04:54:20;95127.38;;;-1.09;100.00
40384;BME280;26097;42.366;23.818;2023-01-25T04:57:20;95127.41;;;-1.12;100.00
40384;BME280;26097;42.366;23.818;2023-01-25T05:00:21;95132.53;;;-1.12;100.00
40384;BME280;26097;42.366;23.818;2023-01-25T05:03:21;95131.75;;;-1.16;100.00
40384;BME280;26097;42.366;23.818;2023-01-25T05:06:22;95133.34;;;-1.10;100.00
40384;BME280;26097;42.366;23.818;2023-01-25T05:09:22;95129.06;;;-1.08;100.00
40384;BME280;26097;42.366;23.818;2023-01-25T05:12:23;95129.06;;;-1.08;100.00
40384;BME280;26097;42.366;23.818;2023-01-25T05:15:23;95132.47;;;-1.08;100.00
40384;BME280;26097;42.366;23.818;2023-01-25T05:18:24;95135.03;;;-1.09;100.00
40384;BME280;26097;42.366;23.818;2023-01-25T05:21:24;95136.81;;;-1.13;100.00
40384;BME280;26097;42.366;23.818;2023-01-25T05:24:43;95134.31;;;-1.18;100.00
40384;BME280;26097;42.366;23.818;2023-01-25T05:27:44;95135.97;;;-1.13;100.00
40384;BME280;26097;42.366;23.818;2023-01-25T05:30:44;95131.69;;;-1.13;100.00
40384;BME280;26097;42.366;23.818;2023-01-25T05:33:45;95138.56;;;-1.15;100.00
40384;BME280;26097;42.366;23.818;2023-01-25T05:36:45;95136.97;;;-1.25;100.00
40384;BME280;26097;42.366;23.818;2023-01-25T05:39:45;95136.91;;;-1.22;100.00
40384;BME280;26097;42.366;23.818;2023-01-25T05:42:55;95135.19;;;-1.20;100.00
40384;BME280;26097;42.366;23.818;2023-01-25T05:45:55;95140.31;;;-1.20;100.00
40384;BME280;26097;42.366;23.818;2023-01-25T05:48:57;95143.81;;;-1.29;100.00
40384;BME280;26097;42.366;23.818;2023-01-25T05:51:58;95138.75;;;-1.31;100.00
40384;BME280;26097;42.366;23.818;2023-01-25T05:54:58;95140.44;;;-1.30;100.00
40384;BME280;26097;42.366;23.818;2023-01-25T05:57:58;95138.78;;;-1.34;100.00
40384;BME280;26097;42.366;23.818;2023-01-25T06:01:00;95142.94;;;-1.26;100.00
40384;BME280;26097;42.366;23.818;2023-01-25T06:04:00;95137.88;;;-1.30;100.00
40384;BME280;26097;42.366;23.818;2023-01-25T06:07:01;95137.00;;;-1.28;100.00
40384;BME280;26097;42.366;23.818;2023-01-25T06:10:03;95141.22;;;-1.24;100.00
40384;BME280;26097;42.366;23.818;2023-01-25T06:13:04;95140.31;;;-1.20;100.00
40384;BME280;26097;42.366;23.818;2023-01-25T06:16:04;95145.50;;;-1.26;100.00
40384;BME280;26097;42.366;23.818;2023-01-25T06:19:05;95141.16;;;-1.21;100.00
40384;BME280;26097;42.366;23.818;2023-01-25T06:22:06;95146.38;;;-1.27;100.00
40384;BME280;26097;42.366;23.818;2023-01-25T06:25:08;95147.25;;;-1.27;100.00
40384;BME280;26097;42.366;23.818;2023-01-25T06:28:08;95148.84;;;-1.21;100.00
40384;BME280;26097;42.366;23.818;2023-01-25T06:31:11;95145.47;;;-1.22;100.00
40384;BME280;26097;42.366;23.818;2023-01-25T06:34:12;95139.47;;;-1.22;100.00
40384;BME280;26097;42.366;23.818;2023-01-25T06:37:12;95145.41;;;-1.17;100.00
40384;BME280;26097;42.366;23.818;2023-01-25T06:40:13;95150.53;;;-1.17;100.00
40384;BME280;26097;42.366;23.818;2023-01-25T06:43:13;95152.22;;;-1.19;100.00
40384;BME280;26097;42.366;23.818;2023-01-25T06:46:14;95148.88;;;-1.23;100.00
40384;BME280;26097;42.366;23.818;2023-01-25T06:49:14;95149.72;;;-1.22;100.00
40384;BME280;26097;42.366;23.818;2023-01-25T06:52:14;95142.09;;;-1.25;100.00
40384;BME280;26097;42.366;23.818;2023-01-25T06:55:15;95145.41;;;-1.19;100.00
40384;BME280;26097;42.366;23.818;2023-01-25T06:58:15;95151.50;;;-1.29;100.00
40384;BME280;26097;42.366;23.818;2023-01-25T07:01:21;95149.72;;;-1.22;100.00
40384;BME280;26097;42.366;23.818;2023-01-25T07:04:22;95153.13;;;-1.23;100.00
40384;BME280;26097;42.366;23.818;2023-01-25T07:07:23;95155.69;;;-1.23;100.00
40384;BME280;26097;42.366;23.818;2023-01-25T07:10:23;95151.44;;;-1.23;100.00
40384;BME280;26097;42.366;23.818;2023-01-25T07:13:25;95150.53;;;-1.20;100.00
40384;BME280;26097;42.366;23.818;2023-01-25T07:16:25;95164.19;;;-1.21;100.00
40384;BME280;26097;42.366;23.818;2023-01-25T07:19:26;95152.22;;;-1.18;100.00
40384;BME280;26097;42.366;23.818;2023-01-25T07:22:26;95155.69;;;-1.23;100.00
40384;BME280;26097;42.366;23.818;2023-01-25T07:25:27;95152.22;;;-1.19;100.00
40384;BME280;26097;42.366;23.818;2023-01-25T07:28:27;95159.81;;;-1.11;100.00
40384;BME280;26097;42.366;23.818;2023-01-25T07:31:27;95161.59;;;-1.15;100.00
40384;BME280;26097;42.366;23.818;2023-01-25T07:34:28;95165.06;;;-1.22;100.00
40384;BME280;26097;42.366;23.818;2023-01-25T07:37:28;95169.31;;;-1.21;100.00
40384;BME280;26097;42.366;23.818;2023-01-25T07:40:29;95162.50;;;-1.22;100.00
40384;BME280;26097;42.366;23.818;2023-01-25T07:43:30;95167.56;;;-1.16;100.00
40384;BME280;26097;42.366;23.818;2023-01-25T07:46:30;95174.47;;;-1.24;100.00
40384;BME280;26097;42.366;23.818;2023-01-25T07:49:31;95164.16;;;-1.17;100.00
40384;BME280;26097;42.366;23.818;2023-01-25T07:52:31;95167.56;;;-1.19;100.00
40384;BME280;26097;42.366;23.818;2023-01-25T07:55:32;95176.84;;;-1.10;100.00
40384;BME280;26097;42.366;23.818;2023-01-25T07:58:33;95183.78;;;-1.17;100.00
40384;BME280;26097;42.366;23.818;2023-01-25T08:01:33;95181.19;;;-1.14;100.00
40384;BME280;26097;42.366;23.818;2023-01-25T08:04:34;95179.44;;;-1.12;100.00
40384;BME280;26097;42.366;23.818;2023-01-25T08:07:34;95179.31;;;-1.03;100.00
40384;BME280;26097;42.366;23.818;2023-01-25T08:10:34;95175.88;;;-1.02;100.00
40384;BME280;26097;42.366;23.818;2023-01-25T08:13:35;95173.41;;;-1.06;100.00
40384;BME280;26097;42.366;23.818;2023-01-25T08:16:35;95175.88;;;-1.02;100.00
40384;BME280;26097;42.366;23.818;2023-01-25T08:19:36;95168.22;;;-1.02;100.00
40384;BME280;26097;42.366;23.818;2023-01-25T08:22:36;95177.47;;;-0.91;100.00
40384;BME280;26097;42.366;23.818;2023-01-25T08:25:36;95182.66;;;-0.96;100.00
40384;BME280;26097;42.366;23.818;2023-01-25T08:28:38;95189.50;;;-0.99;100.00
40384;BME280;26097;42.366;23.818;2023-01-25T08:31:40;95177.44;;;-0.88;100.00
40384;BME280;26097;42.366;23.818;2023-01-25T08:34:42;95179.72;;;-0.69;100.00
40384;BME280;26097;42.366;23.818;2023-01-25T08:37:43;95175.47;;;-0.70;100.00
40384;BME280;26097;42.366;23.818;2023-01-25T08:40:43;95174.72;;;-0.79;100.00
40384;BME280;26097;42.366;23.818;2023-01-25T08:43:45;95178.72;;;-0.59;100.00
40384;BME280;26097;42.366;23.818;2023-01-25T08:46:45;95173.31;;;-0.40;100.00
40384;BME280;26097;42.366;23.818;2023-01-25T08:49:46;95178.44;;;-0.40;100.00
40384;BME280;26097;42.366;23.818;2023-01-25T08:52:46;95173.50;;;-0.53;100.00
40384;BME280;26097;42.366;23.818;2023-01-25T08:55:47;95160.59;;;-0.45;100.00
40384;BME280;26097;42.366;23.818;2023-01-25T08:58:48;95165.50;;;-0.31;100.00
40384;BME280;26097;42.366;23.818;2023-01-25T09:01:50;95168.06;;;-0.31;100.00
40384;BME280;26097;42.366;23.818;2023-01-25T09:04:50;95166.38;;;-0.32;100.00
40384;BME280;26097;42.366;23.818;2023-01-25T09:07:50;95166.94;;;-0.16;100.00
40384;BME280;26097;42.366;23.818;2023-01-25T09:10:51;95164.19;;;-0.04;100.00
40384;BME280;26097;42.366;23.818;2023-01-25T09:13:51;95154.91;;;-0.11;100.00
40384;BME280;26097;42.366;23.818;2023-01-25T09:16:52;95152.31;;;-0.09;100.00
40384;BME280;26097;42.366;23.818;2023-01-25T09:19:52;95153.19;;;-0.09;100.00
40384;BME280;26097;42.366;23.818;2023-01-25T09:22:53;95142.81;;;-0.03;100.00
40384;BME280;26097;42.366;23.818;2023-01-25T09:25:58;95150.50;;;-0.04;100.00
40384;BME280;26097;42.366;23.818;2023-01-25T09:28:58;95145.25;;;0.05;100.00
40384;BME280;26097;42.366;23.818;2023-01-25T09:31:59;95138.28;;;0.12;100.00
40384;BME280;26097;42.366;23.818;2023-01-25T09:34:59;95129.69;;;0.14;100.00
40384;BME280;26097;42.366;23.818;2023-01-25T09:38:00;95127.31;;;0.05;100.00
40384;BME280;26097;42.366;23.818;2023-01-25T09:44:21;95120.69;;;-0.07;100.00
40384;BME280;26097;42.366;23.818;2023-01-25T09:47:35;95119.88;;;-0.12;100.00
40384;BME280;26097;42.366;23.818;2023-01-25T09:51:14;95116.69;;;-0.23;100.00
40384;BME280;26097;42.366;23.818;2023-01-25T09:54:18;95112.56;;;-0.34;100.00
40384;BME280;26097;42.366;23.818;2023-01-25T09:57:30;95106.69;;;-0.39;100.00
40384;BME280;26097;42.366;23.818;2023-01-25T10:00:36;95102.56;;;-0.46;100.00
40384;BME280;26097;42.366;23.818;2023-01-25T10:03:42;95096.63;;;-0.50;100.00
40384;BME280;26097;42.366;23.818;2023-01-25T10:06:49;95091.50;;;-0.48;100.00
40384;BME280;26097;42.366;23.818;2023-01-25T10:10:02;95086.13;;;-0.34;100.00
40384;BME280;26097;42.366;23.818;2023-01-25T10:13:09;95083.63;;;-0.37;100.00
40384;BME280;26097;42.366;23.818;2023-01-25T10:16:56;95074.09;;;-0.31;100.00
40384;BME280;26097;42.366;23.818;2023-01-25T10:23:29;95072.44;;;-0.33;100.00
40384;BME280;26097;42.366;23.818;2023-01-25T10:26:35;95067.53;;;-0.46;100.00
40384;BME280;26097;42.366;23.818;2023-01-25T10:29:38;95055.66;;;-0.50;100.00
40384;BME280;26097;42.366;23.818;2023-01-25T10:32:39;95063.34;;;-0.50;100.00
40384;BME280;26097;42.366;23.818;2023-01-25T10:35:43;95059.69;;;-0.36;100.00
40384;BME280;26097;42.366;23.818;2023-01-25T10:38:47;95063.81;;;-0.29;100.00
40384;BME280;26097;42.366;23.818;2023-01-25T10:41:53;95056.91;;;-0.24;100.00
40384;BME280;26097;42.366;23.818;2023-01-25T10:44:57;95036.31;;;-0.19;100.00
40384;BME280;26097;42.366;23.818;2023-01-25T10:48:01;95031.88;;;-0.11;100.00
40384;BME280;26097;42.366;23.818;2023-01-25T10:51:04;95035.28;;;-0.09;100.00
40384;BME280;26097;42.366;23.818;2023-01-25T10:54:05;95033.63;;;-0.11;100.00
40384;BME280;26097;42.366;23.818;2023-01-25T10:57:07;95036.13;;;-0.08;100.00
40384;BME280;26097;42.366;23.818;2023-01-25T11:03:20;95025.81;;;-0.05;100.00
40384;BME280;26097;42.366;23.818;2023-01-25T11:09:37;95023.09;;;0.03;100.00
40384;BME280;26097;42.366;23.818;2023-01-25T11:12:38;95015.47;;;-0.02;100.00
40384;BME280;26097;42.366;23.818;2023-01-25T11:15:43;95006.91;;;-0.01;100.00
40384;BME280;26097;42.366;23.818;2023-01-25T11:18:54;95001.84;;;-0.04;100.00
40384;BME280;26097;42.366;23.818;2023-01-25T11:21:58;94993.28;;;-0.03;100.00
40384;BME280;26097;42.366;23.818;2023-01-25T11:25:23;94991.88;;;-0.17;100.00
40384;BME280;26097;42.366;23.818;2023-01-25T11:28:24;94989.03;;;-0.04;100.00
40384;BME280;26097;42.366;23.818;2023-01-25T11:31:25;94990.13;;;-0.15;100.00
40384;BME280;26097;42.366;23.818;2023-01-25T11:34:26;94986.16;;;-0.31;100.00
40384;BME280;26097;42.366;23.818;2023-01-25T11:40:42;94977.59;;;-0.32;100.00
40384;BME280;26097;42.366;23.818;2023-01-25T11:51:05;94966.81;;;-0.48;100.00
40384;BME280;26097;42.366;23.818;2023-01-25T11:54:27;94964.19;;;-0.45;100.00
40384;BME280;26097;42.366;23.818;2023-01-25T11:58:06;94954.69;;;-0.39;100.00
40384;BME280;26097;42.366;23.818;2023-01-25T12:01:14;94956.50;;;-0.45;100.00
40384;BME280;26097;42.366;23.818;2023-01-25T12:07:54;94947.13;;;-0.44;100.00
40384;BME280;26097;42.366;23.818;2023-01-25T12:28:12;94930.75;;;-0.82;100.00
40384;BME280;26097;42.366;23.818;2023-01-25T12:31:27;94935.13;;;-0.89;100.00
40384;BME280;26097;42.366;23.818;2023-01-25T12:37:35;94940.19;;;-0.84;100.00
40384;BME280;26097;42.366;23.818;2023-01-25T12:50:55;94918.03;;;-0.87;100.00
40384;BME280;26097;42.366;23.818;2023-01-25T12:53:56;94919.66;;;-0.83;100.00
40384;BME280;26097;42.366;23.818;2023-01-25T12:57:20;94917.06;;;-0.81;100.00
40384;BME280;26097;42.366;23.818;2023-01-25T13:07:23;94905.34;;;-0.93;100.00
40384;BME280;26097;42.366;23.818;2023-01-25T13:10:29;94899.22;;;-0.86;100.00
40384;BME280;26097;42.366;23.818;2023-01-25T13:13:30;94895.06;;;-0.90;100.00
40384;BME280;26097;42.366;23.818;2023-01-25T13:16:36;94897.59;;;-0.90;100.00
40384;BME280;26097;42.366;23.818;2023-01-25T13:19:41;94896.59;;;-0.81;100.00
40384;BME280;26097;42.366;23.818;2023-01-25T13:25:42;94894.13;;;-0.86;100.00
40384;BME280;26097;42.366;23.818;2023-01-25T13:28:43;94893.47;;;-0.97;100.00
40384;BME280;26097;42.366;23.818;2023-01-25T13:31:46;94899.41;;;-0.95;100.00
40384;BME280;26097;42.366;23.818;2023-01-25T13:38:00;94913.84;;;-0.91;100.00
40384;BME280;26097;42.366;23.818;2023-01-25T13:41:10;94908.03;;;-1.01;100.00
40384;BME280;26097;42.366;23.818;2023-01-25T13:44:22;94919.28;;;-1.10;100.00
40384;BME280;26097;42.366;23.818;2023-01-25T13:47:32;94920.97;;;-1.10;100.00
40384;BME280;26097;42.366;23.818;2023-01-25T13:50:38;94925.25;;;-1.11;100.00
40384;BME280;26097;42.366;23.818;2023-01-25T13:53:54;94922.84;;;-1.20;100.00
40384;BME280;26097;42.366;23.818;2023-01-25T13:57:05;94920.41;;;-1.26;100.00
40384;BME280;26097;42.366;23.818;2023-01-25T14:00:13;94910.97;;;-1.23;100.00
40384;BME280;26097;42.366;23.818;2023-01-25T14:03:15;94913.66;;;-1.31;100.00
40384;BME280;26097;42.366;23.818;2023-01-25T14:06:37;94905.91;;;-1.27;100.00
40384;BME280;26097;42.366;23.818;2023-01-25T14:09:41;94899.06;;;-1.24;100.00
40384;BME280;26097;42.366;23.818;2023-01-25T14:12:42;94896.56;;;-1.28;100.00
40384;BME280;26097;42.366;23.818;2023-01-25T14:15:59;94897.31;;;-1.23;100.00
40384;BME280;26097;42.366;23.818;2023-01-25T14:19:35;94898.19;;;-1.24;100.00
40384;BME280;26097;42.366;23.818;2023-01-25T14:22:36;94899.91;;;-1.25;100.00
40384;BME280;26097;42.366;23.818;2023-01-25T14:25:39;94891.44;;;-1.28;100.00
40384;BME280;26097;42.366;23.818;2023-01-25T14:28:44;94887.22;;;-1.31;100.00
40384;BME280;26097;42.366;23.818;2023-01-25T14:31:48;94884.66;;;-1.30;100.00
40384;BME280;26097;42.366;23.818;2023-01-25T14:34:49;94880.50;;;-1.37;100.00
40384;BME280;26097;42.366;23.818;2023-01-25T14:37:50;94889.94;;;-1.40;100.00
40384;BME280;26097;42.366;23.818;2023-01-25T14:40:57;94896.84;;;-1.47;100.00
40384;BME280;26097;42.366;23.818;2023-01-25T14:44:01;94891.81;;;-1.50;100.00
40384;BME280;26097;42.366;23.818;2023-01-25T14:47:30;94889.94;;;-1.42;100.00
40384;BME280;26097;42.366;23.818;2023-01-25T14:50:36;94878.09;;;-1.46;100.00
40384;BME280;26097;42.366;23.818;2023-01-25T14:53:39;94878.97;;;-1.49;100.00
40384;BME280;26097;42.366;23.818;2023-01-25T14:56:44;94883.22;;;-1.46;100.00
40384;BME280;26097;42.366;23.818;2023-01-25T14:59:49;94882.34;;;-1.45;100.00
40384;BME280;26097;42.366;23.818;2023-01-25T15:02:54;94888.25;;;-1.43;100.00
40384;BME280;26097;42.366;23.818;2023-01-25T15:06:00;94890.06;;;-1.48;100.00
40384;BME280;26097;42.366;23.818;2023-01-25T15:09:02;94890.88;;;-1.48;100.00
40384;BME280;26097;42.366;23.818;2023-01-25T15:15:19;94891.69;;;-1.44;100.00
40384;BME280;26097;42.366;23.818;2023-01-25T15:18:52;94895.97;;;-1.45;100.00
40384;BME280;26097;42.366;23.818;2023-01-25T15:21:54;94904.59;;;-1.52;100.00
40384;BME280;26097;42.366;23.818;2023-01-25T15:24:55;94908.97;;;-1.59;100.00
40384;BME280;26097;42.366;23.818;2023-01-25T15:27:56;94896.97;;;-1.53;100.00
40384;BME280;26097;42.366;23.818;2023-01-25T15:30:56;94903.78;;;-1.52;100.00
40384;BME280;26097;42.366;23.818;2023-01-25T15:33:59;94913.88;;;-1.46;100.00
40384;BME280;26097;42.366;23.818;2023-01-25T15:37:00;94909.59;;;-1.44;100.00
40384;BME280;26097;42.366;23.818;2023-01-25T15:40:00;94908.72;;;-1.41;100.00
40384;BME280;26097;42.366;23.818;2023-01-25T15:43:01;94913.84;;;-1.43;100.00
40384;BME280;26097;42.366;23.818;2023-01-25T15:46:02;94910.50;;;-1.48;100.00
40384;BME280;26097;42.366;23.818;2023-01-25T15:49:05;94901.97;;;-1.47;100.00
40384;BME280;26097;42.366;23.818;2023-01-25T15:52:07;94903.72;;;-1.49;100.00
40384;BME280;26097;42.366;23.818;2023-01-25T15:55:11;94907.13;;;-1.50;100.00
40384;BME280;26097;42.366;23.818;2023-01-25T15:58:19;94912.31;;;-1.53;100.00
40384;BME280;26097;42.366;23.818;2023-01-25T16:01:22;94915.75;;;-1.54;100.00
40384;BME280;26097;42.366;23.818;2023-01-25T16:04:26;94910.63;;;-1.58;100.00
40384;BME280;26097;42.366;23.818;2023-01-25T16:07:28;94914.75;;;-1.47;100.00
40384;BME280;26097;42.366;23.818;2023-01-25T16:10:29;94924.22;;;-1.52;100.00
40384;BME280;26097;42.366;23.818;2023-01-25T16:13:29;94925.16;;;-1.60;100.00
40384;BME280;26097;42.366;23.818;2023-01-25T16:16:30;94919.19;;;-1.59;100.00
40384;BME280;26097;42.366;23.818;2023-01-25T16:19:32;94916.63;;;-1.59;100.00
40384;BME280;26097;42.366;23.818;2023-01-25T16:22:32;94912.38;;;-1.56;100.00
40384;BME280;26097;42.366;23.818;2023-01-25T16:25:33;94919.09;;;-1.52;100.00
40384;BME280;26097;42.366;23.818;2023-01-25T16:28:33;94913.19;;;-1.56;100.00
40384;BME280;26097;42.366;23.818;2023-01-25T16:31:34;94906.50;;;-1.65;100.00
40384;BME280;26097;42.366;23.818;2023-01-25T16:34:34;94910.78;;;-1.65;100.00
40384;BME280;26097;42.366;23.818;2023-01-25T16:37:34;94900.63;;;-1.70;100.00
40384;BME280;26097;42.366;23.818;2023-01-25T16:40:35;94909.09;;;-1.66;100.00
40384;BME280;26097;42.366;23.818;2023-01-25T16:43:47;94902.28;;;-1.67;100.00
40384;BME280;26097;42.366;23.818;2023-01-25T16:46:48;94894.75;;;-1.77;100.00
40384;BME280;26097;42.366;23.818;2023-01-25T16:49:49;94895.47;;;-1.68;100.00
40384;BME280;26097;42.366;23.818;2023-01-25T16:52:49;94883.50;;;-1.65;100.00
40384;BME280;26097;42.366;23.818;2023-01-25T16:55:50;94890.28;;;-1.64;100.00
40384;BME280;26097;42.366;23.818;2023-01-25T16:58:52;94894.59;;;-1.67;100.00
40384;BME280;26097;42.366;23.818;2023-01-25T17:01:52;94886.22;;;-1.77;100.00
40384;BME280;26097;42.366;23.818;2023-01-25T17:04:53;94887.91;;;-1.75;100.00